Tianjin — A8SJ2 — position and weather

sailwx.info

Track history (hours):
 
Tides and Currents Weather Stations Pressure Air Temp Water Temp Dewpoint Dewpoint Depression Visibility Wind Speed Wind Dir Waves Ship Positions

Tianjin

Last reported at 2018-Apr-24 11:53 UTC. Time now 2018-May-21 09:16 UTC.
Position N 41°38' E 141°57'.
Warning: this ship's position is 26 days out of date.

Length 349 m; draft 13.9 m.

Type: Ship (hazmat cat A). MMSI: 636014224.

Date/timePositionNaut miles runAvg speedWind from/ knotsBaromVisibWave heightAir tempDewpointWater temp
2018-Apr-24 11:53N 41°38' E 141°57'820.2
2018-Apr-24 11:30N 41°38' E 141°46'1020.7
2018-Apr-24 11:00N 41°38' E 141°32'1121.2
2018-Apr-24 10:30N 41°37' E 141°18'1020.9
2018-Apr-24 10:01N 41°37' E 141°04'1122.4
2018-Apr-24 09:30N 41°35' E 140°50'1122.2
2018-Apr-24 09:00N 41°29' E 140°37'1122.6
2018-Apr-24 08:30N 41°23' E 140°25'1122.0
2018-Apr-24 08:00N 41°16' E 140°13'63220.4
2018-Apr-23 01:04N 35°02' E 129°25'220.6
2018-Apr-23 00:58N 35°00' E 129°23'2816.9
2018-Apr-22 23:19N 34°55' E 128°50'  
2018-Apr-18 13:57N 30°13' E 123°03'713.4
2018-Apr-18 13:27N 30°18' E 122°59'4 8.2
2018-Apr-18 13:00N 30°21' E 122°56'916.6
2018-Apr-18 12:29N 30°26' E 122°48'3 6.7
2018-Apr-18 12:00N 30°27' E 122°44'914.9
2018-Apr-18 11:22N 30°29' E 122°34'1412.9
2018-Apr-18 10:18N 30°33' E 122°18'412.9
2018-Apr-18 09:58N 30°33' E 122°13'7 0.4
2018-Apr-17 17:17N 30°36' E 122°06'1 5.1
2018-Apr-17 17:00N 30°35' E 122°07'611.4
2018-Apr-17 16:30N 30°34' E 122°14'7 7.7
2018-Apr-17 15:33N 30°34' E 122°22'4 5.2
2018-Apr-17 14:50N 30°33' E 122°27'2 5.7
2018-Apr-17 14:30N 30°32' E 122°29'5 9.3
2018-Apr-17 14:00N 30°32' E 122°34'5 9.0
2018-Apr-17 13:30N 30°30' E 122°39'3 6.4
2018-Apr-17 12:59N 30°27' E 122°40'0 0.2
2018-Apr-17 12:29N 30°26' E 122°40'  
2018-Apr-14 22:07N 24°15' E 118°53'111.0
2018-Apr-14 22:00N 24°14' E 118°52'1410.9
2018-Apr-14 20:44N 24°04' E 118°41'310.9
2018-Apr-14 20:28N 24°02' E 118°39'511.1
2018-Apr-14 20:00N 23°59' E 118°34'711.4
2018-Apr-14 19:24N 23°54' E 118°29'512.2
2018-Apr-14 19:00N 23°51' E 118°25'612.3
2018-Apr-14 18:30N 23°47' E 118°19'612.1
2018-Apr-14 18:01N 23°44' E 118°15'612.0
2018-Apr-14 17:30N 23°40' E 118°09'612.0
2018-Apr-14 17:00N 23°36' E 118°04'612.1
2018-Apr-14 16:30N 23°32' E 117°60'612.0
2018-Apr-14 16:00N 23°28' E 117°55'612.7
2018-Apr-14 15:30N 23°25' E 117°49'612.8
2018-Apr-14 15:00N 23°21' E 117°43'713.5
2018-Apr-14 14:30N 23°18' E 117°37'714.0
2018-Apr-14 14:00N 23°13' E 117°31'714.4
2018-Apr-14 13:30N 23°08' E 117°25'  
Track history (hours):
 
Tides and Currents Weather Stations Pressure Air Temp Water Temp Dewpoint Dewpoint Depression Visibility Wind Speed Wind Dir Waves Ship Positions

Tianjin

Last reported at 2018-Apr-24 11:53 UTC. Time now 2018-May-21 09:16 UTC.
Position N 41°38' E 141°57'.
Warning: this ship's position is 26 days out of date.

Length 349 m; draft 13.9 m.

Type: Ship (hazmat cat A). MMSI: 636014224.

Date/timePositionNaut miles runAvg speedWind from/ knotsBaromVisibWave heightAir tempDewpointWater temp
2018-Apr-24 11:53N 41°38' E 141°57'820.2
2018-Apr-24 11:30N 41°38' E 141°46'1020.7
2018-Apr-24 11:00N 41°38' E 141°32'1121.2
2018-Apr-24 10:30N 41°37' E 141°18'1020.9
2018-Apr-24 10:01N 41°37' E 141°04'1122.4
2018-Apr-24 09:30N 41°35' E 140°50'1122.2
2018-Apr-24 09:00N 41°29' E 140°37'1122.6
2018-Apr-24 08:30N 41°23' E 140°25'1122.0
2018-Apr-24 08:00N 41°16' E 140°13'63220.4
2018-Apr-23 01:04N 35°02' E 129°25'220.6
2018-Apr-23 00:58N 35°00' E 129°23'2816.9
2018-Apr-22 23:19N 34°55' E 128°50'  
2018-Apr-18 13:57N 30°13' E 123°03'713.4
2018-Apr-18 13:27N 30°18' E 122°59'4 8.2
2018-Apr-18 13:00N 30°21' E 122°56'916.6
2018-Apr-18 12:29N 30°26' E 122°48'3 6.7
2018-Apr-18 12:00N 30°27' E 122°44'914.9
2018-Apr-18 11:22N 30°29' E 122°34'1412.9
2018-Apr-18 10:18N 30°33' E 122°18'412.9
2018-Apr-18 09:58N 30°33' E 122°13'7 0.4
2018-Apr-17 17:17N 30°36' E 122°06'1 5.1
2018-Apr-17 17:00N 30°35' E 122°07'611.4
2018-Apr-17 16:30N 30°34' E 122°14'7 7.7
2018-Apr-17 15:33N 30°34' E 122°22'4 5.2
2018-Apr-17 14:50N 30°33' E 122°27'2 5.7
2018-Apr-17 14:30N 30°32' E 122°29'5 9.3
2018-Apr-17 14:00N 30°32' E 122°34'5 9.0
2018-Apr-17 13:30N 30°30' E 122°39'3 6.4
2018-Apr-17 12:59N 30°27' E 122°40'0 0.2
2018-Apr-17 12:29N 30°26' E 122°40'  
2018-Apr-14 22:07N 24°15' E 118°53'111.0
2018-Apr-14 22:00N 24°14' E 118°52'1410.9
2018-Apr-14 20:44N 24°04' E 118°41'310.9
2018-Apr-14 20:28N 24°02' E 118°39'511.1
2018-Apr-14 20:00N 23°59' E 118°34'711.4
2018-Apr-14 19:24N 23°54' E 118°29'512.2
2018-Apr-14 19:00N 23°51' E 118°25'612.3
2018-Apr-14 18:30N 23°47' E 118°19'612.1
2018-Apr-14 18:01N 23°44' E 118°15'612.0
2018-Apr-14 17:30N 23°40' E 118°09'612.0
2018-Apr-14 17:00N 23°36' E 118°04'612.1
2018-Apr-14 16:30N 23°32' E 117°60'612.0
2018-Apr-14 16:00N 23°28' E 117°55'612.7
2018-Apr-14 15:30N 23°25' E 117°49'612.8
2018-Apr-14 15:00N 23°21' E 117°43'713.5
2018-Apr-14 14:30N 23°18' E 117°37'714.0
2018-Apr-14 14:00N 23°13' E 117°31'714.4
2018-Apr-14 13:30N 23°08' E 117°25'  

Dump ship's entire track history